createdAt,value
2023-05-21T00:00:35.323Z,100923.94
2023-05-21T00:03:02.548Z,100929.67
2023-05-21T00:05:30.343Z,100932.48
2023-05-21T00:07:57.493Z,100929.95
2023-05-21T00:10:24.540Z,100935.20
2023-05-21T00:12:52.099Z,100932.43
2023-05-21T00:15:19.160Z,100927.62
2023-05-21T00:17:46.438Z,100930.09
2023-05-21T00:20:13.676Z,100926.86
2023-05-21T00:22:42.750Z,100932.48
2023-05-21T00:25:11.225Z,100935.31
2023-05-21T00:27:38.407Z,100932.94
2023-05-21T00:30:07.061Z,100930.20
2023-05-21T00:32:34.191Z,100928.88
2023-05-21T00:35:01.402Z,100934.81
2023-05-21T00:37:33.103Z,100937.80
2023-05-21T00:40:05.724Z,100935.45
2023-05-21T00:42:32.736Z,100943.98
2023-05-21T00:45:00.230Z,100940.89
2023-05-21T00:47:29.945Z,100938.33
2023-05-21T00:49:57.166Z,100934.21
2023-05-21T00:52:27.265Z,100933.90
2023-05-21T00:54:54.518Z,100935.67
2023-05-21T00:57:23.102Z,100935.89
2023-05-21T00:59:51.850Z,100930.20
2023-05-21T01:02:19.078Z,100929.04
2023-05-21T01:04:46.287Z,100925.98
2023-05-21T01:07:14.776Z,100924.33
2023-05-21T01:09:42.224Z,100924.73
2023-05-21T01:12:09.475Z,100922.55
2023-05-21T01:14:37.748Z,100923.83
2023-05-21T01:17:06.514Z,100923.72
2023-05-21T01:19:35.695Z,100920.48
2023-05-21T01:22:08.331Z,100912.73
2023-05-21T01:24:35.775Z,100916.59
2023-05-21T01:27:03.851Z,100917.16
2023-05-21T01:29:30.995Z,100915.66
2023-05-21T01:32:13.631Z,100916.39
2023-05-21T01:34:47.083Z,100915.91
2023-05-21T01:37:26.023Z,100913.02
2023-05-21T01:39:59.725Z,100917.25
2023-05-21T01:42:27.014Z,100920.75
2023-05-21T01:44:55.870Z,100924.23
2023-05-21T01:47:23.977Z,100920.26
2023-05-21T01:49:52.636Z,100918.21
2023-05-21T01:52:19.670Z,100922.54
2023-05-21T01:54:47.639Z,100918.55
2023-05-21T01:57:14.684Z,100921.82
2023-05-21T01:59:41.733Z,100920.77
2023-05-21T02:02:08.991Z,100916.07
2023-05-21T02:04:36.233Z,100914.30
2023-05-21T02:07:03.117Z,100911.17
2023-05-21T02:09:30.535Z,100910.27
2023-05-21T02:11:58.500Z,100908.21
2023-05-21T02:14:25.655Z,100907.20
2023-05-21T02:16:52.676Z,100906.21
2023-05-21T02:19:19.681Z,100912.83
2023-05-21T02:21:46.996Z,100915.48
2023-05-21T02:24:14.364Z,100914.03
2023-05-21T02:26:42.322Z,100914.62
2023-05-21T02:29:09.467Z,100910.53
2023-05-21T02:31:37.237Z,100912.33
2023-05-21T02:34:04.961Z,100911.00
2023-05-21T02:36:33.500Z,100905.16
2023-05-21T02:39:01.832Z,100904.15
2023-05-21T02:41:29.409Z,100905.21
2023-05-21T02:43:56.565Z,100910.42
2023-05-21T02:46:23.701Z,100908.36
2023-05-21T02:48:52.144Z,100914.73
2023-05-21T02:51:19.648Z,100917.30
2023-05-21T02:53:46.640Z,100918.52
2023-05-21T02:56:14.251Z,100919.72
2023-05-21T02:58:41.953Z,100920.06
2023-05-21T03:01:09.121Z,100924.91
2023-05-21T03:03:36.553Z,100919.71
2023-05-21T03:06:04.601Z,100923.16
2023-05-21T03:08:32.262Z,100923.34
2023-05-21T03:11:00.167Z,100925.55
2023-05-21T03:13:27.300Z,100926.04
2023-05-21T03:15:57.805Z,100934.33
2023-05-21T03:18:25.608Z,100933.96
2023-05-21T03:20:52.705Z,100932.20
2023-05-21T03:23:20.776Z,100933.92
2023-05-21T03:25:48.644Z,100932.16
2023-05-21T03:28:17.709Z,100932.18
2023-05-21T03:30:50.022Z,100927.50
2023-05-21T03:33:35.187Z,100926.96
2023-05-21T03:36:08.782Z,100926.65
2023-05-21T03:38:37.191Z,100927.38
2023-05-21T03:41:05.664Z,100923.83
2023-05-21T03:43:32.813Z,100921.97
2023-05-21T03:46:01.020Z,100918.20
2023-05-21T03:48:40.198Z,100921.41
2023-05-21T03:51:08.063Z,100923.04
2023-05-21T03:53:35.658Z,100926.55
2023-05-21T03:56:03.172Z,100927.48
2023-05-21T03:58:30.983Z,100931.14
2023-05-21T04:00:59.168Z,100937.41
2023-05-21T04:03:26.718Z,100942.93
2023-05-21T04:05:54.740Z,100938.26
2023-05-21T04:08:23.017Z,100934.80
2023-05-21T04:10:49.956Z,100931.50
2023-05-21T04:13:17.621Z,100926.27
2023-05-21T04:15:46.969Z,100924.19
2023-05-21T04:18:16.615Z,100927.79
2023-05-21T04:20:44.097Z,100926.34
2023-05-21T04:23:12.109Z,100922.66
2023-05-21T04:25:39.322Z,100920.68
2023-05-21T04:28:06.559Z,100923.73
2023-05-21T04:30:37.909Z,100923.66
2023-05-21T04:33:05.107Z,100928.92
2023-05-21T04:35:36.233Z,100930.71
2023-05-21T04:38:06.012Z,100933.02
2023-05-21T04:40:33.054Z,100936.55
2023-05-21T04:43:04.914Z,100941.12
2023-05-21T04:45:33.006Z,100941.41
2023-05-21T04:48:00.754Z,100938.16
2023-05-21T04:50:30.952Z,100941.14
2023-05-21T04:52:59.732Z,100937.20
2023-05-21T04:55:27.726Z,100931.81
2023-05-21T04:57:54.872Z,100934.99
2023-05-21T05:00:22.852Z,100935.41
2023-05-21T05:02:50.079Z,100938.95
2023-05-21T05:05:17.119Z,100945.09
2023-05-21T05:07:44.053Z,100951.98
2023-05-21T05:10:11.147Z,100958.49
2023-05-21T05:12:38.179Z,100960.45
2023-05-21T05:15:06.047Z,100961.41
2023-05-21T05:17:34.538Z,100963.97
2023-05-21T05:20:01.662Z,100968.23
2023-05-21T05:22:29.370Z,100974.15
2023-05-21T05:24:56.957Z,100981.20
2023-05-21T05:27:24.349Z,100983.27
2023-05-21T05:29:51.804Z,100986.06
2023-05-21T05:32:18.992Z,100989.06
2023-05-21T05:34:46.864Z,100991.02
2023-05-21T05:37:14.053Z,100989.00
2023-05-21T05:39:41.254Z,100984.06
2023-05-21T05:42:08.631Z,100975.52
2023-05-21T05:44:35.749Z,100970.65
2023-05-21T05:47:02.876Z,100975.03
2023-05-21T05:49:29.920Z,100976.19
2023-05-21T05:51:57.088Z,100981.05
2023-05-21T05:54:24.669Z,100975.20
2023-05-21T05:56:52.287Z,100975.28
2023-05-21T05:59:19.364Z,100979.95
2023-05-21T06:01:48.230Z,100978.45
2023-05-21T06:04:16.529Z,100975.99
2023-05-21T06:06:43.528Z,100972.66
2023-05-21T06:09:11.226Z,100972.23
2023-05-21T06:11:38.665Z,100973.26
2023-05-21T06:14:06.222Z,100972.96
2023-05-21T06:16:34.330Z,100964.11
2023-05-21T06:19:01.587Z,100967.63
2023-05-21T06:21:28.796Z,100976.89
2023-05-21T06:23:56.028Z,100984.95
2023-05-21T06:26:24.033Z,100990.89
2023-05-21T06:28:51.368Z,100992.55
2023-05-21T06:31:19.646Z,100994.41
2023-05-21T06:33:49.556Z,101012.65
2023-05-21T06:36:17.891Z,100997.92
2023-05-21T06:38:45.698Z,100992.33
2023-05-21T06:41:12.818Z,100990.60
2023-05-21T06:43:52.592Z,101011.98
2023-05-21T06:46:58.247Z,101001.39
2023-05-21T06:49:25.325Z,101000.29
2023-05-21T06:51:54.182Z,100994.52
2023-05-21T06:54:21.742Z,101000.58
2023-05-21T06:56:50.738Z,100984.94
2023-05-21T06:59:17.699Z,101008.13
2023-05-21T07:01:45.026Z,100991.54
2023-05-21T07:04:13.407Z,100995.56
2023-05-21T07:06:41.801Z,100983.39
2023-05-21T07:09:08.969Z,100985.98
2023-05-21T07:11:36.507Z,101014.64
2023-05-21T07:14:06.637Z,101005.86
2023-05-21T07:16:34.531Z,101001.83
2023-05-21T07:19:02.382Z,100983.23
2023-05-21T07:21:29.696Z,101003.40
2023-05-21T07:23:56.959Z,100995.60
2023-05-21T07:26:24.065Z,100989.96
2023-05-21T07:28:51.255Z,101005.39
2023-05-21T07:31:18.464Z,101038.25
2023-05-21T07:33:47.894Z,100988.48
2023-05-21T07:36:16.690Z,101005.45
2023-05-21T07:38:44.651Z,101022.39
2023-05-21T07:41:12.837Z,101023.52
2023-05-21T07:43:40.183Z,101038.43
2023-05-21T07:46:07.852Z,101016.66
2023-05-21T07:48:35.664Z,100986.30
2023-05-21T07:51:04.194Z,100986.22
2023-05-21T07:53:32.591Z,100980.67
2023-05-21T07:56:01.779Z,100985.65
2023-05-21T07:58:29.444Z,100965.65
2023-05-21T08:00:57.432Z,100959.65
2023-05-21T08:03:26.507Z,100928.98
2023-05-21T08:05:54.059Z,100950.84
2023-05-21T08:08:23.513Z,100911.09
2023-05-21T08:10:51.830Z,100832.25
2023-05-21T08:13:19.499Z,100789.59
2023-05-21T08:15:49.062Z,100769.28
2023-05-21T08:18:18.092Z,100802.77
2023-05-21T08:20:46.159Z,100816.98
2023-05-21T08:23:13.196Z,100857.62
2023-05-21T08:25:46.710Z,100828.29
2023-05-21T08:28:14.573Z,100849.45
2023-05-21T08:30:42.777Z,100902.45
2023-05-21T08:33:09.778Z,100933.93
2023-05-21T08:35:37.432Z,100943.42
2023-05-21T08:38:25.190Z,100971.02
2023-05-21T09:39:50.050Z,100879.96
2023-05-21T09:42:18.836Z,100882.70
2023-05-21T09:44:45.797Z,100909.86
2023-05-21T09:47:13.041Z,100906.10
2023-05-21T09:49:39.980Z,100895.98
2023-05-21T09:52:07.334Z,100891.69
2023-05-21T09:54:34.796Z,100910.58
2023-05-21T09:57:04.840Z,100921.06
2023-05-21T09:59:41.697Z,100934.48
2023-05-21T10:02:20.334Z,100945.50
2023-05-21T10:05:54.316Z,100885.34
2023-05-21T10:08:22.955Z,100857.81
2023-05-21T10:10:50.262Z,100841.13
2023-05-21T10:13:19.476Z,100802.51
2023-05-21T10:15:50.216Z,100800.67
2023-05-21T10:18:18.560Z,100847.92
2023-05-21T10:20:46.133Z,100827.61
2023-05-21T10:23:13.207Z,100837.27
2023-05-21T10:25:40.214Z,100811.33
2023-05-21T10:28:07.774Z,100783.31
2023-05-21T10:30:35.033Z,100841.92
2023-05-21T10:33:02.460Z,100842.89
2023-05-21T10:35:29.648Z,100853.26
2023-05-21T10:37:57.600Z,100895.95
2023-05-21T10:40:24.747Z,100909.48
2023-05-21T10:42:58.350Z,100907.36
2023-05-21T10:45:54.098Z,100877.69
2023-05-21T10:48:24.317Z,100855.33
2023-05-21T10:51:13.290Z,100816.21
2023-05-21T10:54:01.894Z,100821.10
2023-05-21T10:56:51.271Z,100796.75
2023-05-21T10:59:30.614Z,100819.46
2023-05-21T11:01:57.855Z,100832.05
2023-05-21T11:04:28.506Z,100855.08
2023-05-21T11:06:56.597Z,100855.78
2023-05-21T11:09:23.708Z,100855.56
2023-05-21T11:11:52.499Z,100854.72
2023-05-21T11:14:32.819Z,100852.40
2023-05-21T11:17:00.564Z,100816.04
2023-05-21T11:19:37.813Z,100787.96
2023-05-21T11:22:07.586Z,100795.07
2023-05-21T11:24:39.065Z,100836.38
2023-05-21T11:27:07.237Z,100832.99
2023-05-21T11:29:42.169Z,100800.49
2023-05-21T11:32:09.724Z,100806.92
2023-05-21T11:34:37.896Z,100780.81
2023-05-21T11:37:17.924Z,100722.22
2023-05-21T11:39:45.766Z,100765.72
2023-05-21T11:42:13.087Z,100655.09
2023-05-21T11:44:46.882Z,100616.31
2023-05-21T11:47:16.286Z,100564.55
2023-05-21T11:49:43.286Z,100592.91
2023-05-21T11:52:11.094Z,100581.39
2023-05-21T11:54:48.754Z,100516.13
2023-05-21T11:57:17.476Z,100484.17
2023-05-21T11:59:53.677Z,100537.52
2023-05-21T12:02:21.760Z,100597.86
2023-05-21T12:04:50.184Z,100587.10
2023-05-21T12:07:19.367Z,100623.27
2023-05-21T12:09:47.737Z,100677.73
2023-05-21T12:12:16.304Z,100669.48
2023-05-21T12:14:48.086Z,100698.17
2023-05-21T12:17:22.233Z,100677.42
2023-05-21T12:19:51.084Z,100534.25
2023-05-21T12:22:18.119Z,100513.34
2023-05-21T12:24:45.911Z,100485.90
2023-05-21T12:27:13.738Z,100421.89
2023-05-21T12:29:42.711Z,100323.44
2023-05-21T12:32:12.694Z,100406.23
2023-05-21T12:34:47.302Z,100333.86
2023-05-21T12:37:28.069Z,100077.38
2023-05-21T12:39:56.206Z,100219.88
2023-05-21T12:42:31.086Z,100293.16
2023-05-21T12:44:58.483Z,100294.01
2023-05-21T12:47:29.129Z,100266.55
2023-05-21T12:50:00.571Z,100213.94
2023-05-21T12:52:27.859Z,100155.92
2023-05-21T12:54:58.077Z,100180.25
2023-05-21T12:57:25.945Z,100286.00
2023-05-21T12:59:57.804Z,100224.40
2023-05-21T13:02:26.453Z,100226.57
2023-05-21T13:05:00.398Z,100204.68
2023-05-21T13:07:29.899Z,100235.55
2023-05-21T13:09:57.256Z,100269.40
2023-05-21T13:12:26.270Z,100323.41
2023-05-21T13:14:55.135Z,100408.98
2023-05-21T13:17:22.215Z,100485.63
2023-05-21T13:20:09.134Z,100565.03
2023-05-21T13:22:39.226Z,100674.45
2023-05-21T13:25:07.249Z,100678.30
2023-05-21T13:27:34.642Z,100737.61
2023-05-21T13:30:02.315Z,100773.89
2023-05-21T13:32:29.492Z,100823.80
2023-05-21T13:34:56.699Z,100839.70
2023-05-21T13:37:23.673Z,100818.52
2023-05-21T13:39:50.892Z,100799.97
2023-05-21T13:42:18.047Z,100837.16
2023-05-21T13:44:45.201Z,100802.98
2023-05-21T13:47:12.343Z,100805.34
2023-05-21T13:49:39.632Z,100792.19
2023-05-21T13:52:07.664Z,100770.91
2023-05-21T13:54:34.713Z,100818.54
2023-05-21T13:57:01.859Z,100858.18
2023-05-21T13:59:30.760Z,100852.52
2023-05-21T14:01:59.753Z,100823.80
2023-05-21T14:04:27.004Z,100842.06
2023-05-21T14:06:54.660Z,100840.73
2023-05-21T14:09:23.647Z,100884.86
2023-05-21T14:11:51.208Z,100913.44
2023-05-21T14:14:19.278Z,100911.98
2023-05-21T14:16:47.429Z,100928.52
2023-05-21T14:19:14.941Z,100937.23
2023-05-21T14:21:42.412Z,100964.05
2023-05-21T14:24:10.030Z,100983.31
2023-05-21T14:26:43.721Z,100988.92
2023-05-21T14:29:10.773Z,100999.38
2023-05-21T14:31:38.149Z,100984.46
2023-05-21T14:34:07.123Z,101003.15
2023-05-21T14:36:34.575Z,100997.02
2023-05-21T14:39:01.723Z,100989.05
2023-05-21T14:41:29.648Z,100974.84
2023-05-21T14:43:56.738Z,100986.34
2023-05-21T14:46:23.693Z,100997.26
2023-05-21T14:48:50.808Z,101013.17
2023-05-21T14:51:19.338Z,101008.38
2023-05-21T14:53:46.236Z,101012.22
2023-05-21T14:56:13.296Z,101002.58
2023-05-21T14:58:40.341Z,101004.55
2023-05-21T15:01:08.648Z,100994.52
2023-05-21T15:03:36.378Z,100981.64
2023-05-21T15:06:03.768Z,100981.86
2023-05-21T15:08:31.198Z,100977.25
2023-05-21T15:10:58.546Z,100970.20
2023-05-21T15:13:27.430Z,100949.36
2023-05-21T15:15:55.335Z,100944.17
2023-05-21T15:18:25.061Z,100945.45
2023-05-21T15:20:53.119Z,100943.33
2023-05-21T15:23:20.231Z,100935.50
2023-05-21T15:25:47.692Z,100933.98
2023-05-21T15:28:14.872Z,100951.20
2023-05-21T15:30:41.982Z,100955.95
2023-05-21T15:33:09.136Z,100962.77
2023-05-21T15:35:36.870Z,100974.26
2023-05-21T15:38:04.660Z,100987.73
2023-05-21T15:40:32.226Z,101000.35
2023-05-21T15:42:59.275Z,100994.11
2023-05-21T15:45:26.422Z,100986.52
2023-05-21T15:47:53.446Z,100981.56
2023-05-21T15:50:20.718Z,100973.58
2023-05-21T15:52:47.610Z,100962.02
2023-05-21T15:55:14.704Z,100961.36
2023-05-21T15:57:41.757Z,100960.84
2023-05-21T16:00:09.966Z,100955.35
2023-05-21T16:02:37.139Z,100954.10
2023-05-21T16:05:04.939Z,100953.02
2023-05-21T16:07:31.845Z,100953.39
2023-05-21T16:09:58.852Z,100953.02
2023-05-21T16:12:26.382Z,100950.65
2023-05-21T16:14:53.544Z,100938.89
2023-05-21T16:17:20.601Z,100939.36
2023-05-21T16:19:47.967Z,100933.20
2023-05-21T16:22:15.093Z,100937.17
2023-05-21T16:24:42.134Z,100932.90
2023-05-21T16:27:09.179Z,100932.58
2023-05-21T16:29:38.092Z,100926.67
2023-05-21T16:32:07.207Z,100918.41
2023-05-21T16:34:34.719Z,100915.18
2023-05-21T16:37:01.977Z,100910.75
2023-05-21T16:39:29.124Z,100910.84
2023-05-21T16:41:59.979Z,100903.25
2023-05-21T16:44:27.714Z,100897.39
2023-05-21T16:46:54.868Z,100897.94
2023-05-21T16:49:22.233Z,100899.21
2023-05-21T16:51:49.884Z,100896.94
2023-05-21T16:54:17.029Z,100895.88
2023-05-21T16:56:44.079Z,100886.81
2023-05-21T16:59:11.380Z,100885.11
2023-05-21T17:01:39.106Z,100879.02
2023-05-21T17:04:06.356Z,100880.96
2023-05-21T17:06:34.315Z,100879.33
2023-05-21T17:09:01.966Z,100882.00
2023-05-21T17:11:30.151Z,100876.31
2023-05-21T17:13:57.224Z,100874.42
2023-05-21T17:16:25.277Z,100867.77
2023-05-21T17:18:53.180Z,100861.55
2023-05-21T17:21:20.437Z,100856.71
2023-05-21T17:23:47.559Z,100853.02
2023-05-21T17:26:15.406Z,100850.31
2023-05-21T17:28:43.283Z,100846.02
2023-05-21T17:31:11.195Z,100843.63
2023-05-21T17:33:39.151Z,100845.59
2023-05-21T17:36:07.403Z,100848.04
2023-05-21T17:38:34.427Z,100847.17
2023-05-21T17:41:02.016Z,100851.36
2023-05-21T17:43:29.123Z,100856.40
2023-05-21T17:45:56.276Z,100859.56
2023-05-21T17:48:23.426Z,100861.28
2023-05-21T17:50:51.290Z,100866.92
2023-05-21T17:53:18.606Z,100869.95
2023-05-21T17:55:45.654Z,100869.95
2023-05-21T17:58:12.843Z,100871.71
2023-05-21T18:00:39.910Z,100872.48
2023-05-21T18:03:07.426Z,100867.69
2023-05-21T18:05:34.851Z,100866.14
2023-05-21T18:08:03.072Z,100868.77
2023-05-21T18:10:30.122Z,100872.70
2023-05-21T18:12:57.268Z,100878.92
2023-05-21T18:15:24.422Z,100878.86
2023-05-21T18:17:51.519Z,100883.71
2023-05-21T18:20:18.814Z,100884.59
2023-05-21T18:22:45.740Z,100886.19
2023-05-21T18:25:12.916Z,100884.82
2023-05-21T18:27:40.056Z,100881.68
2023-05-21T18:30:08.389Z,100882.48
2023-05-21T18:32:39.074Z,100881.77
2023-05-21T18:35:11.627Z,100880.23
2023-05-21T18:37:42.375Z,100878.22
2023-05-21T18:40:10.155Z,100876.23
2023-05-21T18:42:37.293Z,100875.83
2023-05-21T18:45:08.700Z,100878.73
2023-05-21T18:47:36.399Z,100873.79
2023-05-21T18:50:04.047Z,100865.59
2023-05-21T18:52:31.238Z,100855.13
2023-05-21T18:54:58.564Z,100849.09
2023-05-21T18:57:25.613Z,100843.92
2023-05-21T18:59:52.760Z,100838.41
2023-05-21T19:02:20.306Z,100835.64
2023-05-21T19:04:47.481Z,100835.17
2023-05-21T19:07:16.867Z,100836.29
2023-05-21T19:09:43.821Z,100833.61
2023-05-21T19:12:10.969Z,100835.14
2023-05-21T19:14:38.627Z,100831.58
2023-05-21T19:17:06.744Z,100827.05
2023-05-21T19:19:34.026Z,100831.92
2023-05-21T19:22:01.300Z,100828.98
2023-05-21T19:24:28.347Z,100822.84
2023-05-21T19:26:55.598Z,100819.04
2023-05-21T19:29:23.263Z,100815.44
2023-05-21T19:31:50.306Z,100815.11
2023-05-21T19:34:17.265Z,100814.99
2023-05-21T19:36:52.759Z,100809.30
2023-05-21T19:39:20.622Z,100800.99
2023-05-21T19:41:48.256Z,100801.16
2023-05-21T19:44:15.472Z,100793.68
2023-05-21T19:46:42.525Z,100786.29
2023-05-21T19:49:11.310Z,100785.64
2023-05-21T19:51:38.866Z,100779.06
2023-05-21T19:54:06.010Z,100773.31
2023-05-21T19:56:33.073Z,100773.16
2023-05-21T19:59:00.140Z,100772.00
2023-05-21T20:01:29.319Z,100767.55
2023-05-21T20:03:56.621Z,100767.81
2023-05-21T20:06:24.116Z,100764.11
2023-05-21T20:08:52.091Z,100769.66
2023-05-21T20:11:19.538Z,100771.77
2023-05-21T20:13:50.377Z,100768.80
2023-05-21T20:16:20.407Z,100765.71
2023-05-21T20:18:47.781Z,100760.21
2023-05-21T20:21:17.552Z,100760.64
2023-05-21T20:23:45.318Z,100755.34
2023-05-21T20:26:14.207Z,100746.59
2023-05-21T20:28:42.375Z,100739.36
2023-05-21T20:31:09.306Z,100737.96
2023-05-21T20:33:41.316Z,100733.23
2023-05-21T20:36:08.536Z,100729.64
2023-05-21T20:38:37.353Z,100726.53
2023-05-21T20:41:05.190Z,100725.51
2023-05-21T20:43:33.070Z,100720.66
2023-05-21T20:46:01.167Z,100716.52
2023-05-21T20:48:29.594Z,100713.40
2023-05-21T20:51:01.062Z,100708.52
2023-05-21T20:53:28.203Z,100705.56
2023-05-21T20:55:55.660Z,100700.37
2023-05-21T20:58:24.249Z,100696.65
2023-05-21T21:00:51.423Z,100689.08
2023-05-21T21:03:19.087Z,100684.93
2023-05-21T21:05:46.229Z,100678.52
2023-05-21T21:08:13.188Z,100674.19
2023-05-21T21:10:42.679Z,100671.25
2023-05-21T21:13:09.826Z,100666.24
2023-05-21T21:15:36.950Z,100663.83
2023-05-21T21:18:04.263Z,100662.12
2023-05-21T21:20:31.231Z,100662.60
2023-05-21T21:22:58.297Z,100658.42
2023-05-21T21:25:25.456Z,100652.86
2023-05-21T21:27:52.586Z,100648.35
2023-05-21T21:30:19.640Z,100650.95
2023-05-21T21:32:47.783Z,100653.74
2023-05-21T21:35:14.892Z,100651.30
2023-05-21T21:37:42.635Z,100646.11
2023-05-21T21:40:10.283Z,100645.24
2023-05-21T21:42:37.331Z,100640.40
2023-05-21T21:45:05.318Z,100643.72
2023-05-21T21:47:32.495Z,100643.21
2023-05-21T21:49:59.597Z,100646.16
2023-05-21T21:52:27.666Z,100646.88
2023-05-21T21:54:57.592Z,100645.67
2023-05-21T21:57:27.702Z,100642.09
2023-05-21T21:59:54.760Z,100641.59
2023-05-21T22:02:22.794Z,100640.10
2023-05-21T22:04:49.814Z,100639.96
2023-05-21T22:07:18.091Z,100641.42
2023-05-21T22:09:45.716Z,100645.13
2023-05-21T22:12:12.997Z,100650.91
2023-05-21T22:14:39.890Z,100658.47
2023-05-21T22:17:08.655Z,100659.58
2023-05-21T22:19:36.162Z,100662.45
2023-05-21T22:24:12.741Z,100649.83
2023-05-21T22:26:45.080Z,100667.61
2023-05-21T22:29:12.245Z,100671.65
2023-05-21T22:31:39.193Z,100678.42
2023-05-21T22:34:06.596Z,100684.02
2023-05-21T22:36:34.817Z,100679.54
2023-05-21T22:39:01.874Z,100682.02
2023-05-21T22:41:28.830Z,100693.81
2023-05-21T22:43:55.954Z,100695.73
2023-05-21T22:46:23.023Z,100703.40
2023-05-21T22:48:50.050Z,100700.33
2023-05-21T22:51:17.480Z,100701.78
2023-05-21T22:53:44.378Z,100707.42
2023-05-21T22:56:11.639Z,100713.08
2023-05-21T22:58:38.581Z,100718.25
2023-05-21T23:01:06.253Z,100720.28
2023-05-21T23:03:33.365Z,100726.25
2023-05-21T23:06:00.716Z,100728.25
2023-05-21T23:08:27.758Z,100734.58
2023-05-21T23:10:54.704Z,100735.31
2023-05-21T23:13:21.850Z,100733.64
2023-05-21T23:15:49.101Z,100738.00
2023-05-21T23:18:16.864Z,100735.91
2023-05-21T23:20:44.063Z,100730.90
2023-05-21T23:23:11.370Z,100729.73
2023-05-21T23:25:38.452Z,100725.98
2023-05-21T23:28:05.971Z,100717.83
2023-05-21T23:30:32.911Z,100716.09
2023-05-21T23:33:00.148Z,100709.30
2023-05-21T23:35:27.421Z,100708.55
2023-05-21T23:37:54.570Z,100706.25
2023-05-21T23:40:21.821Z,100703.60
2023-05-21T23:42:48.729Z,100699.61
2023-05-21T23:45:17.384Z,100701.88
2023-05-21T23:47:44.637Z,100703.27
2023-05-21T23:50:11.751Z,100704.49
2023-05-21T23:52:38.894Z,100709.72
2023-05-21T23:55:06.922Z,100712.38
2023-05-21T23:57:33.865Z,100719.58
